RPC1740 RPLU-RPUI

Flight info

Callsign RPC1740
Flight time 0h 57m
Altitude 5500
Route RPLU RPUI
Aircraft C172/L-S/C

Departure

Time 2026-05-04 12:27
Airport Lubang Airport (RPLU)

Arrival

Time 2026-05-04 13:24
Airport Iba Airport (RPUI)
Time Latitude Longitude Altitude Speed Heading
2026-05-04 12:20 13.85641 120.10886 50 ft 0 kts 239°
2026-05-04 12:23 13.85641 120.10885 50 ft 1 kts 239°
2026-05-04 12:23 13.85648 120.10873 47 ft 2 kts
2026-05-04 12:23 13.85668 120.10894 50 ft 8 kts 42°
2026-05-04 12:24 13.85697 120.10865 50 ft 14 kts 244°
2026-05-04 12:24 13.85637 120.10732 49 ft 26 kts 245°
2026-05-04 12:24 13.85564 120.10571 48 ft 28 kts 245°
2026-05-04 12:24 13.85484 120.10379 45 ft 29 kts 248°
2026-05-04 12:25 13.85389 120.10163 39 ft 30 kts 245°
2026-05-04 12:25 13.85336 120.10082 38 ft 4 kts 302°
2026-05-04 12:25 13.85356 120.10103 39 ft 12 kts 70°
2026-05-04 12:25 13.85446 120.10310 44 ft 52 kts 65°
2026-05-04 12:26 13.85642 120.10745 103 ft 76 kts 59°
2026-05-04 12:26 13.85869 120.11251 289 ft 78 kts 62°
2026-05-04 12:26 13.86128 120.11746 458 ft 81 kts 58°
2026-05-04 12:26 13.86447 120.12255 554 ft 88 kts 63°
2026-05-04 12:27 13.86669 120.12842 711 ft 89 kts 60°
2026-05-04 12:27 13.87110 120.13235 902 ft 86 kts 20°
2026-05-04 12:27 13.87678 120.13414 1108 ft 84 kts 18°
2026-05-04 12:27 13.88224 120.13575 1316 ft 79 kts 18°
2026-05-04 12:28 13.88743 120.13722 1507 ft 77 kts 18°
2026-05-04 12:28 13.89266 120.13863 1681 ft 79 kts 18°
2026-05-04 12:28 13.89809 120.13990 1847 ft 81 kts 18°
2026-05-04 12:28 13.90368 120.14085 2014 ft 83 kts 14°
2026-05-04 12:29 13.90944 120.14149 2178 ft 83 kts 13°
2026-05-04 12:29 13.91527 120.14228 2323 ft 85 kts 15°
2026-05-04 12:29 13.92125 120.14315 2472 ft 88 kts 15°
2026-05-04 12:29 13.92738 120.14411 2629 ft 90 kts 16°
2026-05-04 12:30 13.93353 120.14505 2794 ft 90 kts 16°
2026-05-04 12:30 13.93984 120.14599 2972 ft 93 kts 16°
2026-05-04 12:30 13.94620 120.14693 3168 ft 91 kts 15°
2026-05-04 12:30 13.95233 120.14782 3372 ft 86 kts 16°
2026-05-04 12:31 13.95807 120.14854 3545 ft 82 kts 15°
2026-05-04 12:31 13.96368 120.14922 3726 ft 79 kts 15°
2026-05-04 12:31 13.96904 120.14979 3902 ft 75 kts 15°
2026-05-04 12:31 13.97433 120.15036 4038 ft 77 kts 15°
2026-05-04 12:32 13.97956 120.15099 4174 ft 78 kts 16°
2026-05-04 12:32 13.99114 120.15223 4395 ft 88 kts 12°
2026-05-04 12:32 13.99748 120.15249 4507 ft 93 kts
2026-05-04 12:33 14.00396 120.15254 4623 ft 96 kts
2026-05-04 12:33 14.01074 120.15212 4750 ft 98 kts
2026-05-04 12:33 14.01744 120.15114 4900 ft 95 kts 358°
2026-05-04 12:33 14.02384 120.14995 5063 ft 91 kts 358°
2026-05-04 12:34 14.02992 120.14874 5223 ft 88 kts 358°
2026-05-04 12:34 14.03587 120.14751 5369 ft 86 kts 358°
2026-05-04 12:34 14.04177 120.14628 5499 ft 88 kts 358°
2026-05-04 12:34 14.04831 120.14499 5516 ft 101 kts 358°
2026-05-04 12:35 14.05536 120.14373 5514 ft 106 kts 359°
2026-05-04 12:35 14.06269 120.14242 5512 ft 107 kts 358°
2026-05-04 12:35 14.07012 120.14106 5510 ft 108 kts 358°
2026-05-04 12:35 14.07757 120.13971 5513 ft 109 kts 358°
2026-05-04 12:36 14.08493 120.13846 5512 ft 108 kts
2026-05-04 12:36 14.09241 120.13753 5510 ft 108 kts
2026-05-04 12:36 14.09975 120.13750 5508 ft 104 kts 13°
2026-05-04 12:36 14.10694 120.13832 5508 ft 103 kts 15°
2026-05-04 12:37 14.11406 120.13922 5507 ft 103 kts 13°
2026-05-04 12:37 14.12128 120.13959 5504 ft 104 kts
2026-05-04 12:37 14.12848 120.13961 5503 ft 104 kts
2026-05-04 12:37 14.13576 120.13950 5499 ft 104 kts
2026-05-04 12:38 14.14295 120.13933 5503 ft 107 kts
2026-05-04 12:38 14.15031 120.13912 5612 ft 104 kts
2026-05-04 12:38 14.15745 120.13872 5725 ft 102 kts
2026-05-04 12:38 14.16442 120.13817 5853 ft 99 kts
2026-05-04 12:39 14.17112 120.13759 6004 ft 94 kts
2026-05-04 12:39 14.17746 120.13699 6167 ft 89 kts
2026-05-04 12:39 14.18347 120.13645 6319 ft 84 kts
2026-05-04 12:39 14.18912 120.13587 6455 ft 81 kts
2026-05-04 12:40 14.19495 120.13529 6499 ft 90 kts
2026-05-04 12:40 14.20150 120.13481 6512 ft 98 kts
2026-05-04 12:40 14.20837 120.13440 6514 ft 99 kts
2026-05-04 12:40 14.21531 120.13400 6507 ft 100 kts
2026-05-04 12:41 14.22218 120.13388 6507 ft 100 kts
2026-05-04 12:41 14.22906 120.13432 6505 ft 98 kts 17°
2026-05-04 12:41 14.23579 120.13548 6507 ft 97 kts 20°
2026-05-04 12:41 14.24244 120.13695 6505 ft 97 kts 21°
2026-05-04 12:42 14.24909 120.13844 6511 ft 98 kts 18°
2026-05-04 12:42 14.25575 120.13963 6509 ft 98 kts 18°
2026-05-04 12:42 14.26249 120.14085 6509 ft 99 kts 18°
2026-05-04 12:42 14.26928 120.14208 6505 ft 98 kts 18°
2026-05-04 12:43 14.27600 120.14329 6508 ft 98 kts 18°
2026-05-04 12:43 14.28273 120.14447 6507 ft 98 kts 17°
2026-05-04 12:43 14.28934 120.14550 6503 ft 97 kts 16°
2026-05-04 12:43 14.29607 120.14641 6503 ft 98 kts 15°
2026-05-04 12:44 14.30275 120.14736 6500 ft 97 kts 18°
2026-05-04 12:44 14.30945 120.14840 6499 ft 97 kts 17°
2026-05-04 12:44 14.31619 120.14945 6500 ft 98 kts 17°
2026-05-04 12:44 14.32298 120.15058 6504 ft 99 kts 18°
2026-05-04 12:45 14.32971 120.15175 6504 ft 100 kts 19°
2026-05-04 12:45 14.33656 120.15311 6507 ft 100 kts 19°
2026-05-04 12:45 14.34348 120.15439 6506 ft 101 kts 18°
2026-05-04 12:45 14.35047 120.15560 6506 ft 102 kts 18°
2026-05-04 12:46 14.35749 120.15680 6507 ft 102 kts 17°
2026-05-04 12:46 14.36446 120.15787 6509 ft 103 kts 17°
2026-05-04 12:46 14.37154 120.15893 6511 ft 102 kts 17°
2026-05-04 12:46 14.37856 120.16005 6508 ft 102 kts 17°
2026-05-04 12:47 14.38559 120.16118 6508 ft 102 kts 17°
2026-05-04 12:47 14.39247 120.16231 6505 ft 101 kts 17°
2026-05-04 12:47 14.39948 120.16345 6503 ft 102 kts 17°
2026-05-04 12:47 14.40650 120.16460 6506 ft 102 kts 17°
2026-05-04 12:48 14.41340 120.16571 6503 ft 102 kts 17°
2026-05-04 12:48 14.42040 120.16683 6506 ft 102 kts 17°
2026-05-04 12:48 14.42741 120.16796 6505 ft 102 kts 17°
2026-05-04 12:48 14.43442 120.16907 6506 ft 102 kts 17°
2026-05-04 12:49 14.44146 120.17017 6506 ft 102 kts 17°
2026-05-04 12:49 14.44851 120.17126 6509 ft 102 kts 17°
2026-05-04 12:49 14.45546 120.17234 6508 ft 102 kts 17°
2026-05-04 12:49 14.46247 120.17355 6510 ft 102 kts 19°
2026-05-04 12:50 14.46944 120.17485 6507 ft 101 kts 19°
2026-05-04 12:50 14.47638 120.17621 6509 ft 101 kts 19°
2026-05-04 12:50 14.48331 120.17758 6510 ft 101 kts 19°
2026-05-04 12:50 14.49019 120.17897 6510 ft 102 kts 19°
2026-05-04 12:51 14.49721 120.18028 6516 ft 103 kts 17°
2026-05-04 12:51 14.50433 120.18143 6516 ft 103 kts 17°
2026-05-04 12:51 14.51146 120.18257 6514 ft 104 kts 17°
2026-05-04 12:51 14.51862 120.18373 6516 ft 104 kts 17°
2026-05-04 12:52 14.52574 120.18488 6517 ft 104 kts 17°
2026-05-04 12:52 14.53290 120.18602 6516 ft 104 kts 17°
2026-05-04 12:52 14.54004 120.18717 6517 ft 103 kts 17°
2026-05-04 12:52 14.54709 120.18827 6514 ft 104 kts 16°
2026-05-04 12:53 14.55423 120.18941 6516 ft 104 kts 17°
2026-05-04 12:53 14.56140 120.19059 6518 ft 104 kts 17°
2026-05-04 12:53 14.56854 120.19178 6520 ft 103 kts 17°
2026-05-04 12:53 14.57557 120.19293 6517 ft 103 kts 17°
2026-05-04 12:54 14.58268 120.19408 6520 ft 103 kts 17°
2026-05-04 12:54 14.58978 120.19521 6516 ft 103 kts 17°
2026-05-04 12:54 14.59686 120.19635 6515 ft 103 kts 17°
2026-05-04 12:54 14.60398 120.19750 6513 ft 103 kts 17°
2026-05-04 12:55 14.61103 120.19865 6516 ft 103 kts 17°
2026-05-04 12:55 14.61817 120.19984 6517 ft 104 kts 17°
2026-05-04 12:55 14.62525 120.20101 6517 ft 104 kts 17°
2026-05-04 12:55 14.63241 120.20221 6520 ft 104 kts 17°
2026-05-04 12:56 14.63956 120.20343 6523 ft 104 kts 17°
2026-05-04 12:56 14.64670 120.20462 6521 ft 104 kts 17°
2026-05-04 12:56 14.65388 120.20577 6522 ft 104 kts 17°
2026-05-04 12:56 14.66098 120.20690 6522 ft 104 kts 17°
2026-05-04 12:57 14.66576 120.20766 6525 ft 104 kts 17°
2026-05-04 12:57 14.67297 120.20882 6521 ft 105 kts 17°
2026-05-04 12:57 14.68261 120.21036 6523 ft 105 kts 17°
2026-05-04 12:57 14.68740 120.21113 6520 ft 105 kts 17°
2026-05-04 12:58 14.69701 120.21272 6520 ft 105 kts 17°
2026-05-04 12:58 14.70182 120.21352 6524 ft 106 kts 17°
2026-05-04 12:58 14.70913 120.21463 6524 ft 106 kts 16°
2026-05-04 12:58 14.71647 120.21571 6524 ft 107 kts 16°
2026-05-04 12:59 14.72383 120.21680 6520 ft 106 kts 16°
2026-05-04 12:59 14.73116 120.21787 6522 ft 106 kts 16°
2026-05-04 12:59 14.73848 120.21892 6520 ft 106 kts 15°
2026-05-04 12:59 14.74578 120.21961 6520 ft 107 kts 13°
2026-05-04 13:00 14.75319 120.22022 6519 ft 107 kts 13°
2026-05-04 13:00 14.76059 120.22083 6521 ft 106 kts 13°
2026-05-04 13:00 14.76798 120.22145 6520 ft 106 kts 13°
2026-05-04 13:00 14.77540 120.22201 6522 ft 107 kts 10°
2026-05-04 13:01 14.78284 120.22190 6517 ft 109 kts
2026-05-04 13:01 14.79043 120.22123 6513 ft 110 kts
2026-05-04 13:01 14.79803 120.22020 6516 ft 110 kts
2026-05-04 13:01 14.80565 120.21888 6516 ft 111 kts 359°
2026-05-04 13:02 14.81324 120.21741 6510 ft 111 kts 358°
2026-05-04 13:02 14.82083 120.21584 6508 ft 111 kts 357°
2026-05-04 13:02 14.82831 120.21427 6510 ft 111 kts 358°
2026-05-04 13:02 14.83596 120.21276 6517 ft 113 kts 358°
2026-05-04 13:03 14.84367 120.21067 6514 ft 117 kts 346°
2026-05-04 13:03 14.85114 120.20734 6519 ft 117 kts 345°
2026-05-04 13:03 14.85871 120.20400 6522 ft 119 kts 345°
2026-05-04 13:03 14.86636 120.20084 6523 ft 117 kts 347°
2026-05-04 13:04 14.87382 120.19782 6523 ft 117 kts 346°
2026-05-04 13:04 14.88137 120.19476 6519 ft 115 kts 347°
2026-05-04 13:04 14.88885 120.19180 6515 ft 114 kts 348°
2026-05-04 13:04 14.89633 120.18897 6515 ft 114 kts 348°
2026-05-04 13:05 14.90379 120.18620 6517 ft 116 kts 348°
2026-05-04 13:05 14.91141 120.18348 6518 ft 116 kts 349°
2026-05-04 13:05 14.91902 120.18081 6511 ft 114 kts 349°
2026-05-04 13:05 14.92662 120.17816 6515 ft 115 kts 349°
2026-05-04 13:06 14.93409 120.17555 6512 ft 115 kts 349°
2026-05-04 13:06 14.94168 120.17289 6512 ft 115 kts 349°
2026-05-04 13:06 14.94928 120.17026 6512 ft 115 kts 349°
2026-05-04 13:06 14.95612 120.16554 6511 ft 121 kts 327°
2026-05-04 13:07 14.96252 120.16009 6504 ft 120 kts 327°
2026-05-04 13:07 14.96903 120.15455 6508 ft 121 kts 327°
2026-05-04 13:07 14.97556 120.14901 6515 ft 122 kts 327°
2026-05-04 13:07 14.98215 120.14341 6517 ft 122 kts 327°
2026-05-04 13:08 14.98842 120.13778 6514 ft 119 kts 325°
2026-05-04 13:08 14.99459 120.13218 6510 ft 117 kts 325°
2026-05-04 13:08 15.00078 120.12655 6516 ft 118 kts 326°
2026-05-04 13:08 15.00694 120.12098 6513 ft 115 kts 325°
2026-05-04 13:09 15.01292 120.11553 6502 ft 116 kts 325°
2026-05-04 13:09 15.01899 120.11003 6527 ft 117 kts 326°
2026-05-04 13:09 15.02519 120.10445 6514 ft 117 kts 325°
2026-05-04 13:09 15.03119 120.09901 6516 ft 116 kts 325°
2026-05-04 13:10 15.03729 120.09349 6523 ft 117 kts 325°
2026-05-04 13:10 15.04352 120.08790 6526 ft 119 kts 325°
2026-05-04 13:10 15.04975 120.08231 6531 ft 118 kts 325°
2026-05-04 13:10 15.05603 120.07670 6528 ft 119 kts 325°
2026-05-04 13:11 15.06240 120.07141 6532 ft 119 kts 332°
2026-05-04 13:11 15.06969 120.06722 6527 ft 120 kts 339°
2026-05-04 13:11 15.07699 120.06330 6532 ft 116 kts 339°
2026-05-04 13:11 15.08427 120.05942 6525 ft 118 kts 339°
2026-05-04 13:12 15.09145 120.05559 6527 ft 116 kts 339°
2026-05-04 13:12 15.09868 120.05174 6529 ft 119 kts 340°
2026-05-04 13:12 15.10610 120.04780 6523 ft 119 kts 339°
2026-05-04 13:12 15.11328 120.04397 6524 ft 116 kts 339°
2026-05-04 13:13 15.12037 120.04020 6522 ft 113 kts 340°
2026-05-04 13:13 15.12751 120.03681 6516 ft 112 kts 342°
2026-05-04 13:13 15.13458 120.03340 6516 ft 112 kts 341°
2026-05-04 13:13 15.14161 120.02993 6516 ft 111 kts 341°
2026-05-04 13:14 15.14859 120.02648 6519 ft 110 kts 341°
2026-05-04 13:14 15.15543 120.02309 6516 ft 111 kts 341°
2026-05-04 13:14 15.16261 120.01960 6381 ft 115 kts 341°
2026-05-04 13:14 15.16986 120.01620 6187 ft 113 kts 345°
2026-05-04 13:15 15.17714 120.01358 5961 ft 109 kts 348°
2026-05-04 13:15 15.18420 120.01110 5734 ft 107 kts 348°
2026-05-04 13:15 15.19130 120.00865 5510 ft 107 kts 348°
2026-05-04 13:15 15.19834 120.00623 5288 ft 106 kts 348°
2026-05-04 13:16 15.20534 120.00386 5072 ft 105 kts 347°
2026-05-04 13:16 15.21221 120.00155 4855 ft 105 kts 348°
2026-05-04 13:16 15.21918 119.99925 4635 ft 104 kts 348°
2026-05-04 13:16 15.22601 119.99703 4415 ft 103 kts 348°
2026-05-04 13:17 15.23287 119.99485 4191 ft 103 kts 348°
2026-05-04 13:17 15.23972 119.99263 3969 ft 104 kts 348°
2026-05-04 13:17 15.24668 119.99044 3733 ft 105 kts 348°
2026-05-04 13:17 15.25362 119.98852 3503 ft 104 kts 356°
2026-05-04 13:18 15.26079 119.98830 3270 ft 102 kts
2026-05-04 13:18 15.26776 119.98795 3047 ft 98 kts 359°
2026-05-04 13:18 15.27451 119.98747 2829 ft 97 kts
2026-05-04 13:18 15.28125 119.98707 2613 ft 97 kts
2026-05-04 13:19 15.28784 119.98672 2395 ft 94 kts 360°
2026-05-04 13:19 15.29436 119.98640 2180 ft 94 kts 359°
2026-05-04 13:19 15.30068 119.98565 1959 ft 92 kts 347°
2026-05-04 13:19 15.30704 119.98379 1778 ft 102 kts 339°
2026-05-04 13:20 15.31348 119.97997 1559 ft 105 kts 331°
2026-05-04 13:20 15.31866 119.97556 1520 ft 92 kts 319°
2026-05-04 13:20 15.32342 119.97110 1536 ft 102 kts 321°
2026-05-04 13:20 15.32961 119.96733 1538 ft 105 kts 348°
2026-05-04 13:21 15.33615 119.96926 1543 ft 105 kts 50°
2026-05-04 13:21 15.33821 119.97646 1447 ft 107 kts 97°
2026-05-04 13:21 15.33380 119.98251 1343 ft 105 kts 138°
2026-05-04 13:21 15.32880 119.98769 1200 ft 99 kts 133°
2026-05-04 13:22 15.32415 119.99268 1008 ft 96 kts 133°
2026-05-04 13:22 15.31913 119.99682 829 ft 91 kts 149°
2026-05-04 13:22 15.31333 119.99772 789 ft 85 kts 198°
2026-05-04 13:22 15.30847 119.99416 677 ft 88 kts 225°
2026-05-04 13:23 15.30433 119.98954 610 ft 83 kts 252°
2026-05-04 13:23 15.30622 119.98468 521 ft 77 kts 319°
2026-05-04 13:23 15.31007 119.98132 508 ft 70 kts 317°
2026-05-04 13:23 15.31406 119.97815 401 ft 74 kts 327°
2026-05-04 13:24 15.31804 119.97485 234 ft 72 kts 326°
2026-05-04 13:24 15.32196 119.97176 58 ft 70 kts 322°
2026-05-04 13:24 15.32527 119.96903 -5 ft 41 kts 322°
2026-05-04 13:25 15.32631 119.96820 -1 ft 5 kts 54°
2026-05-04 13:25 15.32578 119.96868 -4 ft 17 kts 145°
2026-05-04 13:25 15.32465 119.96958 -5 ft 22 kts 142°
2026-05-04 13:25 15.32369 119.97038 -10 ft 11 kts 119°
2026-05-04 13:26 15.32398 119.97091 -11 ft 0 kts 49°